This is the latest recevied weather packets stored in our database for station/object N0RRC. If no packets are shown the sender has not sent any weather packets the latest 10 day(s).
| Time | Temp. | Humidity | Pressure | Rain* | Wind** | Luminosity | Snow |
|---|---|---|---|---|---|---|---|
| 1777892216 | 8.33° C | 78% | 1000.6 hPa | 0 mm | - | 9 W/m² | - |
| 1777890417 | 8.33° C | 78% | 1000.7 hPa | 0 mm | - | 0 W/m² | - |
| 1777887416 | 8.89° C | 79% | 1001.6 hPa | 0 mm | - | 0 W/m² | - |
| 1777886216 | 8.89° C | 78% | 1001.9 hPa | 0 mm | - | 0 W/m² | - |
| 1777876617 | 10° C | 76% | 1003.1 hPa | 0 mm | - | 0 W/m² | - |
| 1777876016 | 10.56° C | 75% | 1003.3 hPa | 0 mm | - | 0 W/m² | - |
| 1777873016 | 11.11° C | 76% | 1003.5 hPa | 0 mm | - | 0 W/m² | - |
| 1777871836 | 11.11° C | 75% | 1003.5 hPa | 0 mm | - | 0 W/m² | - |
| 1777871215 | 11.11° C | 75% | 1003.5 hPa | 0 mm | - | 0 W/m² | - |
| 1777868816 | 12.22° C | 73% | 1003.6 hPa | 0 mm | - | 0 W/m² | - |
| 1777867016 | 12.78° C | 72% | 1003.7 hPa | 0 mm | - | 0 W/m² | - |
| 1777866416 | 12.78° C | 70% | 1003.9 hPa | 0 mm | - | 0 W/m² | - |
| 1777863416 | 13.89° C | 67% | 1004.1 hPa | 0 mm | - | 0 W/m² | - |
| 1777861616 | 13.89° C | 69% | 1004 hPa | 0 mm | - | 0 W/m² | - |
| 1777852015 | 18.89° C | 54% | 1003.4 hPa | 0 mm | - | 93 W/m² | - |
| 1777851416 | 18.89° C | 54% | 1003.5 hPa | 0 mm | - | 125 W/m² | - |
| 1777849615 | 18.89° C | 52% | 1003.6 hPa | 0 mm | - | 270 W/m² | - |
| 1777849035 | 18.89° C | 53% | 1003.8 hPa | 0 mm | - | 304 W/m² | - |
| 1777841815 | 18.33° C | 52% | 1004.3 hPa | 0 mm | - | 664 W/m² | - |
| 1777840015 | 18.33° C | 54% | 1004.9 hPa | 0 mm | - | 765 W/m² | - |
| 1777837615 | 17.78° C | 55% | 1005.7 hPa | 0 mm | - | 848 W/m² | - |
| 1777834617 | 17.22° C | 53% | 1005.9 hPa | 0 mm | - | 879 W/m² | - |
| 1777832217 | 16.11° C | 59% | 1006.1 hPa | 0 mm | - | 911 W/m² | - |
| 1777831617 | 16.11° C | 62% | 1006.5 hPa | 0 mm | - | 913 W/m² | - |
| 1777828617 | 15° C | 63% | 1007.6 hPa | 0 mm | - | 912 W/m² | - |
* Rain latest hour (hover to see other rain measurements)
** Current wind speed in m/s (hover to see current wind gust speed)